Time;durP1;ratioP1;P1;durP2;ratioP2;P2;SDS_P1;SDS_P2;PMS_P1;PMS_P2;Temp;Humidity;BMP_temperature;BMP_pressure;BME280_temperature;BME280_humidity;BME280_pressure;Samples;Min_cycle;Max_cycle;Signal;HPM_P1;HPM_P2
2021/04/30 00:00:26;;;;;;;0.00;0.00;;;;;;;;;;4985313;28;20210;-70
2021/04/30 00:02:52;;;;;;;0.10;0.10;;;;;;;;;;4991500;28;20191;-70
2021/04/30 00:05:19;;;;;;;0.28;0.28;;;;;;;;;;4992893;28;20182;-70
2021/04/30 00:07:45;;;;;;;1.55;0.52;;;;;;;;;;4991377;28;20679;-70
2021/04/30 00:10:12;;;;;;;0.10;0.10;;;;;;;;;;4992437;28;20164;-70
2021/04/30 00:12:38;;;;;;;0.15;0.15;;;;;;;;;;4992420;28;20191;-72
2021/04/30 00:15:05;;;;;;;0.13;0.13;;;;;;;;;;4992431;28;20163;-72
2021/04/30 00:17:31;;;;;;;0.10;0.10;;;;;;;;;;4992242;28;20261;-72
2021/04/30 00:19:58;;;;;;;0.10;0.10;;;;;;;;;;4991025;28;20191;-72
2021/04/30 00:22:24;;;;;;;0.65;0.65;;;;;;;;;;4992109;28;20295;-72
2021/04/30 00:24:50;;;;;;;0.00;0.00;;;;;;;;;;4992362;28;20183;-72
2021/04/30 00:27:17;;;;;;;0.00;0.00;;;;;;;;;;4990685;28;20206;-72
2021/04/30 00:29:44;;;;;;;0.10;0.10;;;;;;;;;;4991999;28;20191;-72
2021/04/30 00:32:12;;;;;;;0.43;0.43;;;;;;;;;;4992071;28;20222;-72
2021/04/30 00:34:40;;;;;;;0.40;0.40;;;;;;;;;;4992027;28;20230;-71
2021/04/30 00:37:06;;;;;;;0.10;0.10;;;;;;;;;;4990610;28;20202;-72
2021/04/30 00:39:32;;;;;;;0.22;0.20;;;;;;;;;;4990502;28;20226;-71
2021/04/30 00:41:58;;;;;;;0.28;0.28;;;;;;;;;;4991852;28;20198;-72
2021/04/30 00:44:24;;;;;;;0.10;0.10;;;;;;;;;;4990451;28;20167;-72
2021/04/30 00:46:50;;;;;;;0.30;0.30;;;;;;;;;;4991897;28;20258;-71
2021/04/30 00:49:17;;;;;;;0.10;0.10;;;;;;;;;;4991751;28;20199;-71
2021/04/30 00:51:43;;;;;;;5.43;0.82;;;;;;;;;;4990430;28;20171;-71
2021/04/30 00:54:09;;;;;;;0.20;0.20;;;;;;;;;;4990520;28;20184;-71
2021/04/30 00:56:36;;;;;;;0.13;0.13;;;;;;;;;;4990359;28;20348;-71
2021/04/30 00:59:03;;;;;;;0.47;0.47;;;;;;;;;;4990354;28;20617;-71
2021/04/30 01:01:29;;;;;;;0.10;0.10;;;;;;;;;;4991492;28;20248;-71
2021/04/30 01:03:55;;;;;;;0.20;0.20;;;;;;;;;;4991537;28;20183;-71
2021/04/30 01:06:22;;;;;;;0.40;0.40;;;;;;;;;;4991467;28;20662;-71
2021/04/30 01:08:48;;;;;;;0.15;0.15;;;;;;;;;;4991599;28;20172;-70
2021/04/30 01:11:15;;;;;;;1.15;0.40;;;;;;;;;;4990727;28;20168;-71
2021/04/30 01:13:41;;;;;;;2.38;0.50;;;;;;;;;;4991293;28;20163;-71
2021/04/30 01:16:07;;;;;;;0.25;0.25;;;;;;;;;;4989933;28;20263;-71
2021/04/30 01:18:44;;;;;;;0.10;0.10;;;;;;;;;;4989961;28;20220;-71
2021/04/30 01:21:11;;;;;;;0.68;0.68;;;;;;;;;;4991055;28;20250;-71
2021/04/30 01:23:53;;;;;;;0.20;0.20;;;;;;;;;;4989870;28;20183;-68
2021/04/30 01:26:19;;;;;;;0.43;0.43;;;;;;;;;;4991078;28;20211;-70
2021/04/30 01:28:47;;;;;;;0.10;0.10;;;;;;;;;;4991221;28;20160;-70
2021/04/30 01:31:13;;;;;;;0.10;0.10;;;;;;;;;;4989855;28;20175;-69
2021/04/30 01:33:40;;;;;;;0.00;0.00;;;;;;;;;;4989795;28;20171;-70
2021/04/30 01:36:06;;;;;;;0.57;0.57;;;;;;;;;;4989634;28;20203;-71
2021/04/30 01:38:33;;;;;;;0.10;0.10;;;;;;;;;;4989595;28;20199;-71
2021/04/30 01:40:59;;;;;;;0.20;0.13;;;;;;;;;;4990924;28;20187;-72
2021/04/30 01:43:25;;;;;;;0.10;0.10;;;;;;;;;;4991014;28;20191;-71
2021/04/30 01:45:55;;;;;;;0.10;0.10;;;;;;;;;;4990890;28;20205;-71
2021/04/30 01:48:29;;;;;;;0.10;0.10;;;;;;;;;;4989508;28;20180;-71
2021/04/30 01:50:56;;;;;;;0.10;0.10;;;;;;;;;;4989443;28;20168;-70
2021/04/30 01:53:24;;;;;;;0.30;0.30;;;;;;;;;;4990825;28;20191;-70
2021/04/30 01:55:50;;;;;;;0.00;0.00;;;;;;;;;;4989343;28;20213;-70
2021/04/30 01:58:17;;;;;;;0.32;0.32;;;;;;;;;;4990700;28;20252;-70
2021/04/30 02:00:44;;;;;;;0.10;0.10;;;;;;;;;;4990546;28;20238;-71
2021/04/30 02:03:10;;;;;;;0.32;0.32;;;;;;;;;;4989068;28;20171;-71
2021/04/30 02:05:37;;;;;;;0.10;0.10;;;;;;;;;;4989260;28;20198;-70
2021/04/30 02:08:04;;;;;;;0.10;0.10;;;;;;;;;;4989245;28;20164;-70
2021/04/30 02:10:31;;;;;;;0.30;0.30;;;;;;;;;;4990472;28;20710;-70
2021/04/30 02:12:57;;;;;;;0.38;0.38;;;;;;;;;;4990324;28;20211;-70
2021/04/30 02:15:28;;;;;;;1.05;0.90;;;;;;;;;;4989268;28;20163;-70
2021/04/30 02:17:55;;;;;;;0.57;0.55;;;;;;;;;;4990171;28;20172;-70
2021/04/30 02:20:22;;;;;;;0.28;0.20;;;;;;;;;;4989779;28;20252;-71
2021/04/30 02:22:49;;;;;;;0.00;0.00;;;;;;;;;;4989173;28;20187;-71
2021/04/30 02:25:16;;;;;;;0.52;0.52;;;;;;;;;;4990020;28;20163;-70
2021/04/30 02:27:42;;;;;;;0.45;0.45;;;;;;;;;;4988764;28;20170;-70
2021/04/30 02:30:14;;;;;;;0.10;0.10;;;;;;;;;;4989975;28;20163;-70
2021/04/30 02:32:40;;;;;;;1.35;0.90;;;;;;;;;;4989936;28;20198;-71
2021/04/30 02:35:08;;;;;;;0.10;0.10;;;;;;;;;;4989755;28;20164;-70
2021/04/30 02:37:35;;;;;;;0.00;0.00;;;;;;;;;;4977281;28;20259;-70
2021/04/30 02:40:01;;;;;;;0.00;0.00;;;;;;;;;;4970521;29;20164;-71
2021/04/30 02:42:27;;;;;;;0.85;0.30;;;;;;;;;;4970774;29;20324;-70
2021/04/30 02:44:54;;;;;;;0.28;0.28;;;;;;;;;;4970189;28;20160;-69
2021/04/30 02:47:27;;;;;;;0.10;0.10;;;;;;;;;;4968734;29;20211;-71
2021/04/30 02:49:55;;;;;;;0.13;0.13;;;;;;;;;;4968948;29;20187;-71
2021/04/30 02:52:21;;;;;;;0.13;0.13;;;;;;;;;;4970182;29;20182;-71
2021/04/30 02:54:47;;;;;;;1.08;0.43;;;;;;;;;;4969971;29;20199;-70
2021/04/30 02:57:14;;;;;;;0.20;0.20;;;;;;;;;;4970063;29;20206;-70
2021/04/30 02:59:41;;;;;;;0.70;0.70;;;;;;;;;;4968673;29;20272;-70
2021/04/30 03:02:07;;;;;;;0.45;0.45;;;;;;;;;;4968646;29;20202;-69
2021/04/30 03:04:33;;;;;;;0.40;0.38;;;;;;;;;;4970105;29;20224;-70
2021/04/30 03:06:59;;;;;;;0.10;0.10;;;;;;;;;;4969837;29;20280;-70
2021/04/30 03:09:26;;;;;;;0.77;0.77;;;;;;;;;;4968725;29;20179;-71
2021/04/30 03:11:52;;;;;;;0.00;0.00;;;;;;;;;;4968680;29;20176;-70
2021/04/30 03:14:18;;;;;;;3.03;0.80;;;;;;;;;;4969889;29;20219;-70
2021/04/30 03:16:44;;;;;;;0.45;0.45;;;;;;;;;;4968358;29;20207;-71
2021/04/30 03:19:11;;;;;;;0.30;0.30;;;;;;;;;;4969770;29;20174;-69
2021/04/30 03:21:38;;;;;;;1.70;0.38;;;;;;;;;;4969650;29;20603;-69
2021/04/30 03:24:05;;;;;;;0.43;0.43;;;;;;;;;;4969709;29;20791;-70
2021/04/30 03:26:31;;;;;;;0.10;0.10;;;;;;;;;;4969768;29;20222;-70
2021/04/30 03:28:57;;;;;;;0.40;0.40;;;;;;;;;;4968513;29;20172;-71
2021/04/30 03:31:23;;;;;;;0.20;0.20;;;;;;;;;;4969609;28;20203;-71
2021/04/30 03:33:50;;;;;;;0.30;0.30;;;;;;;;;;4969365;28;20188;-69
2021/04/30 03:36:16;;;;;;;0.47;0.47;;;;;;;;;;4969539;29;20238;-71
2021/04/30 03:38:42;;;;;;;0.10;0.10;;;;;;;;;;4968187;29;20175;-69
2021/04/30 03:41:08;;;;;;;0.00;0.00;;;;;;;;;;4969434;28;20251;-71
2021/04/30 03:43:35;;;;;;;0.20;0.20;;;;;;;;;;4969231;29;20163;-71
2021/04/30 03:46:01;;;;;;;0.20;0.20;;;;;;;;;;4969272;29;20218;-70
2021/04/30 03:48:28;;;;;;;0.20;0.20;;;;;;;;;;4967890;29;20180;-71
2021/04/30 03:50:54;;;;;;;0.98;0.98;;;;;;;;;;4969200;29;20214;-71
2021/04/30 03:53:21;;;;;;;0.10;0.10;;;;;;;;;;4968051;29;20196;-71
2021/04/30 03:55:48;;;;;;;0.10;0.10;;;;;;;;;;4967880;28;20669;-70
2021/04/30 03:58:14;;;;;;;0.20;0.20;;;;;;;;;;4969299;29;20184;-69
2021/04/30 04:00:40;;;;;;;1.58;0.73;;;;;;;;;;4969139;28;20196;-70
2021/04/30 04:03:06;;;;;;;0.15;0.15;;;;;;;;;;4967507;29;20190;-70
2021/04/30 04:05:33;;;;;;;0.10;0.10;;;;;;;;;;4969212;29;20223;-71
2021/04/30 04:07:59;;;;;;;0.47;0.47;;;;;;;;;;4969295;29;20160;-70
2021/04/30 04:10:25;;;;;;;1.13;0.30;;;;;;;;;;4969049;29;20227;-69
2021/04/30 04:12:51;;;;;;;0.30;0.30;;;;;;;;;;4969207;29;20184;-70
2021/04/30 04:15:18;;;;;;;0.10;0.10;;;;;;;;;;4967709;29;20180;-71
2021/04/30 04:17:44;;;;;;;0.20;0.20;;;;;;;;;;4969119;28;20194;-70
2021/04/30 04:20:11;;;;;;;0.35;0.35;;;;;;;;;;4967920;29;20176;-70
2021/04/30 04:22:37;;;;;;;0.35;0.35;;;;;;;;;;4969058;29;20283;-68
2021/04/30 04:25:05;;;;;;;0.52;0.52;;;;;;;;;;4968441;29;20215;-70
2021/04/30 04:27:31;;;;;;;0.20;0.20;;;;;;;;;;4967835;29;20252;-70
2021/04/30 04:29:57;;;;;;;0.10;0.10;;;;;;;;;;4968100;29;20180;-70
2021/04/30 04:32:24;;;;;;;0.20;0.20;;;;;;;;;;4969660;29;20180;-69
2021/04/30 04:34:50;;;;;;;0.10;0.10;;;;;;;;;;4969101;29;20164;-69
2021/04/30 04:37:16;;;;;;;0.25;0.25;;;;;;;;;;4968642;29;20223;-70
2021/04/30 04:39:42;;;;;;;1.35;1.25;;;;;;;;;;4968961;29;20171;-69
2021/04/30 04:42:09;;;;;;;0.13;0.13;;;;;;;;;;4967230;29;20292;-69
2021/04/30 04:44:35;;;;;;;0.65;0.65;;;;;;;;;;4967508;28;20176;-69
2021/04/30 04:47:02;;;;;;;0.20;0.20;;;;;;;;;;4971588;29;20383;-69
2021/04/30 04:49:28;;;;;;;0.20;0.20;;;;;;;;;;4971073;29;20265;-70
2021/04/30 04:51:55;;;;;;;0.10;0.10;;;;;;;;;;4972269;29;20184;-69
2021/04/30 04:54:21;;;;;;;0.45;0.45;;;;;;;;;;4971086;29;20183;-70
2021/04/30 04:56:48;;;;;;;0.63;0.63;;;;;;;;;;4970748;29;20240;-69
2021/04/30 04:59:14;;;;;;;0.52;0.52;;;;;;;;;;4970567;29;20180;-69
2021/04/30 05:01:40;;;;;;;0.00;0.00;;;;;;;;;;4972051;28;20188;-71
2021/04/30 05:04:06;;;;;;;0.20;0.20;;;;;;;;;;4972008;29;20275;-70
2021/04/30 05:06:33;;;;;;;2.65;1.05;;;;;;;;;;4971887;29;20215;-70
2021/04/30 05:08:59;;;;;;;0.88;0.88;;;;;;;;;;4970749;29;20220;-70
2021/04/30 05:11:25;;;;;;;0.03;0.03;;;;;;;;;;4972024;28;20272;-70
2021/04/30 05:13:51;;;;;;;0.90;0.38;;;;;;;;;;4974051;28;20705;-71
2021/04/30 05:16:17;;;;;;;0.20;0.20;;;;;;;;;;4989315;28;20218;-69
2021/04/30 05:18:44;;;;;;;0.68;0.68;;;;;;;;;;4990711;28;20198;-69
2021/04/30 05:21:12;;;;;;;0.80;0.80;;;;;;;;;;4988876;28;20285;-70
2021/04/30 05:23:39;;;;;;;1.27;0.65;;;;;;;;;;4989429;28;20179;-70
2021/04/30 05:26:05;;;;;;;0.60;0.60;;;;;;;;;;4989272;28;20195;-68
2021/04/30 05:28:32;;;;;;;0.10;0.10;;;;;;;;;;4989241;28;20266;-69
2021/04/30 05:30:58;;;;;;;0.10;0.10;;;;;;;;;;4990535;28;20187;-71
2021/04/30 05:33:25;;;;;;;0.10;0.10;;;;;;;;;;4990566;28;20167;-70
2021/04/30 05:35:51;;;;;;;0.80;0.65;;;;;;;;;;4989055;28;20254;-70
2021/04/30 05:38:18;;;;;;;0.52;0.52;;;;;;;;;;4990394;28;20167;-71
2021/04/30 05:40:44;;;;;;;0.40;0.40;;;;;;;;;;4989225;28;20211;-71
2021/04/30 05:43:11;;;;;;;0.20;0.20;;;;;;;;;;4990763;28;20156;-69
2021/04/30 05:45:39;;;;;;;0.08;0.08;;;;;;;;;;4990412;28;20242;-70
2021/04/30 05:48:06;;;;;;;1.00;0.40;;;;;;;;;;4989204;28;20167;-69
2021/04/30 05:50:32;;;;;;;0.05;0.05;;;;;;;;;;4989055;28;20207;-71
2021/04/30 05:52:58;;;;;;;0.57;0.57;;;;;;;;;;4988932;28;20179;-71
2021/04/30 05:55:25;;;;;;;0.43;0.43;;;;;;;;;;4990473;28;20211;-70
2021/04/30 05:57:51;;;;;;;0.43;0.43;;;;;;;;;;4990299;28;20174;-70
2021/04/30 06:00:17;;;;;;;0.17;0.17;;;;;;;;;;4988554;28;20678;-70
2021/04/30 06:02:43;;;;;;;0.40;0.40;;;;;;;;;;4988660;28;20179;-69
2021/04/30 06:05:10;;;;;;;0.22;0.22;;;;;;;;;;4988902;28;20186;-73
2021/04/30 06:07:36;;;;;;;0.10;0.10;;;;;;;;;;4988077;28;20187;-70
2021/04/30 06:10:03;;;;;;;0.10;0.10;;;;;;;;;;4989598;28;20211;-69
2021/04/30 06:12:30;;;;;;;0.40;0.20;;;;;;;;;;4990073;28;20169;-71
2021/04/30 06:14:56;;;;;;;0.22;0.22;;;;;;;;;;4988404;28;20293;-72
2021/04/30 06:17:24;;;;;;;0.25;0.25;;;;;;;;;;4988486;28;20190;-72
2021/04/30 06:19:50;;;;;;;0.60;0.60;;;;;;;;;;4989801;28;20282;-71
2021/04/30 06:22:17;;;;;;;2.53;0.70;;;;;;;;;;4989685;28;20266;-71
2021/04/30 06:24:43;;;;;;;0.30;0.30;;;;;;;;;;4988477;28;20182;-71
2021/04/30 06:27:10;;;;;;;0.10;0.10;;;;;;;;;;4988378;28;20180;-71
2021/04/30 06:29:36;;;;;;;0.20;0.20;;;;;;;;;;4988247;28;20199;-71
2021/04/30 06:32:02;;;;;;;1.77;0.38;;;;;;;;;;4989687;28;20511;-71
2021/04/30 06:34:28;;;;;;;1.08;0.85;;;;;;;;;;4989757;28;20653;-71
2021/04/30 06:36:55;;;;;;;0.22;0.22;;;;;;;;;;4989020;28;20193;-70
2021/04/30 06:39:22;;;;;;;1.13;0.98;;;;;;;;;;4989366;28;20202;-71
2021/04/30 06:41:48;;;;;;;1.05;0.60;;;;;;;;;;4989566;28;20202;-71
2021/04/30 06:44:14;;;;;;;1.35;0.63;;;;;;;;;;4988625;28;20683;-69
2021/04/30 06:46:41;;;;;;;0.35;0.35;;;;;;;;;;4989532;28;20168;-69
2021/04/30 06:49:07;;;;;;;1.02;1.02;;;;;;;;;;4988492;28;20190;-70
2021/04/30 06:51:33;;;;;;;0.20;0.20;;;;;;;;;;4989561;28;20174;-70
2021/04/30 06:54:03;;;;;;;0.20;0.20;;;;;;;;;;4988119;28;20651;-70
2021/04/30 06:56:29;;;;;;;0.90;0.90;;;;;;;;;;4989302;28;20163;-68
2021/04/30 06:58:56;;;;;;;0.20;0.20;;;;;;;;;;4989161;28;20198;-70
2021/04/30 07:01:23;;;;;;;0.50;0.50;;;;;;;;;;4987637;28;20199;-70
2021/04/30 07:03:49;;;;;;;0.25;0.25;;;;;;;;;;4989126;28;20238;-70
2021/04/30 07:06:15;;;;;;;0.65;0.50;;;;;;;;;;4988035;28;20194;-70
2021/04/30 07:08:41;;;;;;;0.52;0.52;;;;;;;;;;4987090;28;20198;-70
2021/04/30 07:11:08;;;;;;;0.28;0.28;;;;;;;;;;4988997;28;20159;-71
2021/04/30 07:13:35;;;;;;;0.15;0.15;;;;;;;;;;4981971;28;20255;-70
2021/04/30 07:16:05;;;;;;;0.30;0.30;;;;;;;;;;4988850;28;20193;-69
2021/04/30 07:18:31;;;;;;;0.10;0.10;;;;;;;;;;4976280;28;20235;-72
2021/04/30 07:20:57;;;;;;;0.50;0.50;;;;;;;;;;4969145;28;20234;-70
2021/04/30 07:23:23;;;;;;;0.32;0.22;;;;;;;;;;4969457;28;20697;-69
2021/04/30 07:25:50;;;;;;;0.73;0.73;;;;;;;;;;4969448;28;20160;-70
2021/04/30 07:28:17;;;;;;;0.30;0.30;;;;;;;;;;4967814;28;20184;-70
2021/04/30 07:30:43;;;;;;;0.80;0.65;;;;;;;;;;4967641;29;20195;-70
2021/04/30 07:33:11;;;;;;;0.20;0.20;;;;;;;;;;4978521;28;20247;-70
2021/04/30 07:35:37;;;;;;;0.47;0.47;;;;;;;;;;4987532;28;20179;-71
2021/04/30 07:38:05;;;;;;;0.75;0.75;;;;;;;;;;4986166;28;20200;-70
2021/04/30 07:40:31;;;;;;;0.38;0.38;;;;;;;;;;4974600;28;20215;-70
2021/04/30 07:42:58;;;;;;;0.35;0.35;;;;;;;;;;4984120;28;20214;-70
2021/04/30 07:45:24;;;;;;;0.45;0.45;;;;;;;;;;4987112;28;20182;-71
2021/04/30 07:47:50;;;;;;;0.95;0.57;;;;;;;;;;4968060;29;20230;-70
2021/04/30 07:50:16;;;;;;;0.47;0.45;;;;;;;;;;4968966;28;20220;-69
2021/04/30 07:52:42;;;;;;;1.20;1.20;;;;;;;;;;4969286;28;20195;-71
2021/04/30 07:55:09;;;;;;;0.40;0.40;;;;;;;;;;4978454;28;20201;-71
2021/04/30 07:57:35;;;;;;;0.10;0.10;;;;;;;;;;4982790;28;20195;-71
2021/04/30 08:00:02;;;;;;;0.30;0.30;;;;;;;;;;4987708;28;20252;-71
2021/04/30 08:02:29;;;;;;;0.63;0.63;;;;;;;;;;4972889;28;20290;-71
2021/04/30 08:04:55;;;;;;;1.05;0.95;;;;;;;;;;4968872;28;20164;-70
2021/04/30 08:07:21;;;;;;;0.35;0.35;;;;;;;;;;4967479;29;20186;-70
2021/04/30 08:09:47;;;;;;;0.52;0.52;;;;;;;;;;4968642;28;20156;-71
2021/04/30 08:12:16;;;;;;;0.88;0.82;;;;;;;;;;4968603;28;20184;-71
2021/04/30 08:14:44;;;;;;;3.15;1.38;;;;;;;;;;4968514;28;20192;-71
2021/04/30 08:17:11;;;;;;;0.75;0.60;;;;;;;;;;4968672;29;20188;-71
2021/04/30 08:19:37;;;;;;;0.20;0.20;;;;;;;;;;5000275;28;20187;-72
2021/04/30 08:22:03;;;;;;;1.27;1.17;;;;;;;;;;4971836;28;20243;-70
2021/04/30 08:24:29;;;;;;;4.18;1.88;;;;;;;;;;4972270;28;20188;-70
2021/04/30 08:26:55;;;;;;;0.50;0.50;;;;;;;;;;5003371;28;20198;-70
2021/04/30 08:29:22;;;;;;;0.30;0.30;;;;;;;;;;4971920;28;20160;-71
2021/04/30 08:31:48;;;;;;;1.45;0.75;;;;;;;;;;4971823;28;20526;-71
2021/04/30 08:34:14;;;;;;;0.40;0.40;;;;;;;;;;4986977;28;20222;-70
2021/04/30 08:36:40;;;;;;;0.20;0.20;;;;;;;;;;4989852;28;20198;-71
2021/04/30 08:39:08;;;;;;;20.60;2.55;;;;;;;;;;4986767;28;20179;-71
2021/04/30 08:41:37;;;;;;;0.38;0.38;;;;;;;;;;4971978;28;20268;-71
2021/04/30 08:44:04;;;;;;;0.90;0.77;;;;;;;;;;4990135;28;20199;-69
2021/04/30 08:46:31;;;;;;;1.67;1.58;;;;;;;;;;4990283;28;20194;-70
2021/04/30 08:49:10;;;;;;;0.55;0.45;;;;;;;;;;4989759;28;20179;-70
2021/04/30 08:51:36;;;;;;;0.60;0.60;;;;;;;;;;4990986;28;20161;-70
2021/04/30 08:54:03;;;;;;;1.42;1.13;;;;;;;;;;4982962;28;20204;-69
2021/04/30 08:56:29;;;;;;;0.40;0.40;;;;;;;;;;4981517;28;20255;-68
2021/04/30 08:58:55;;;;;;;0.40;0.40;;;;;;;;;;4974372;28;20188;-70
2021/04/30 09:01:22;;;;;;;1.60;0.55;;;;;;;;;;4977844;28;20204;-70
2021/04/30 09:03:49;;;;;;;0.75;0.73;;;;;;;;;;4977674;28;20198;-70
2021/04/30 09:06:19;;;;;;;0.35;0.35;;;;;;;;;;4982388;28;20176;-69
2021/04/30 09:08:46;;;;;;;0.93;0.55;;;;;;;;;;4979252;28;20167;-69
2021/04/30 09:11:31;;;;;;;0.57;0.57;;;;;;;;;;4985909;28;20175;-69
2021/04/30 09:14:16;;;;;;;0.32;0.32;;;;;;;;;;4990816;28;20273;-69
2021/04/30 09:17:01;;;;;;;0.40;0.40;;;;;;;;;;4990824;28;20198;-70
2021/04/30 09:19:30;;;;;;;0.85;0.85;;;;;;;;;;4989215;28;20259;-69
2021/04/30 09:22:00;;;;;;;0.68;0.68;;;;;;;;;;4988871;28;20584;-68
2021/04/30 09:24:26;;;;;;;0.35;0.35;;;;;;;;;;4989183;28;20163;-69
2021/04/30 09:26:52;;;;;;;0.20;0.20;;;;;;;;;;4988977;28;20195;-69
2021/04/30 09:29:21;;;;;;;1.33;1.33;;;;;;;;;;4990588;28;20168;-68
2021/04/30 09:31:48;;;;;;;0.95;0.95;;;;;;;;;;4989767;28;20151;-69
2021/04/30 09:34:19;;;;;;;0.57;0.57;;;;;;;;;;4989280;28;20222;-70
2021/04/30 09:36:54;;;;;;;0.52;0.52;;;;;;;;;;4990393;28;20174;-69
2021/04/30 09:39:20;;;;;;;0.10;0.10;;;;;;;;;;4988486;28;20190;-68
2021/04/30 09:42:05;;;;;;;1.08;1.08;;;;;;;;;;4988326;28;20203;-69
2021/04/30 09:44:35;;;;;;;0.55;0.55;;;;;;;;;;4981681;28;20187;-68
2021/04/30 09:47:14;;;;;;;1.05;1.05;;;;;;;;;;4980555;28;20217;-70
2021/04/30 09:49:40;;;;;;;0.98;0.77;;;;;;;;;;4969578;29;20214;-68
2021/04/30 09:52:09;;;;;;;0.55;0.50;;;;;;;;;;4969084;29;20928;-69
2021/04/30 09:54:39;;;;;;;4.32;1.25;;;;;;;;;;4973298;28;20203;-69
2021/04/30 09:57:15;;;;;;;0.50;0.50;;;;;;;;;;4969151;29;20244;-69
2021/04/30 09:59:42;;;;;;;0.25;0.25;;;;;;;;;;4985731;28;20187;-70
2021/04/30 10:02:18;;;;;;;1.33;1.25;;;;;;;;;;4969886;28;20196;-67
2021/04/30 10:04:46;;;;;;;0.55;0.55;;;;;;;;;;4985400;28;20251;-69
2021/04/30 10:07:16;;;;;;;0.50;0.45;;;;;;;;;;4975564;28;20266;-71
2021/04/30 10:09:43;;;;;;;3.85;1.42;;;;;;;;;;4973114;28;20172;-71
2021/04/30 10:12:20;;;;;;;0.55;0.55;;;;;;;;;;4969935;29;20176;-70
2021/04/30 10:14:46;;;;;;;0.20;0.20;;;;;;;;;;4968961;29;20238;-71
2021/04/30 10:17:16;;;;;;;0.10;0.10;;;;;;;;;;4969060;29;20219;-70
2021/04/30 10:19:43;;;;;;;2.30;2.13;;;;;;;;;;4968877;29;20192;-69
2021/04/30 10:22:13;;;;;;;0.20;0.20;;;;;;;;;;4969400;28;20228;-71
2021/04/30 10:24:39;;;;;;;0.43;0.35;;;;;;;;;;4970341;28;20173;-70
2021/04/30 10:27:06;;;;;;;0.52;0.52;;;;;;;;;;4984935;28;20199;-71
2021/04/30 10:29:33;;;;;;;0.20;0.20;;;;;;;;;;4985097;28;20176;-70
2021/04/30 10:32:00;;;;;;;1.75;0.88;;;;;;;;;;4984259;28;20180;-71
2021/04/30 10:34:31;;;;;;;0.82;0.82;;;;;;;;;;4985097;28;20242;-71
2021/04/30 10:36:59;;;;;;;0.95;0.95;;;;;;;;;;4970083;28;20198;-71
2021/04/30 10:39:27;;;;;;;0.57;0.57;;;;;;;;;;4969880;28;20267;-70
2021/04/30 10:41:54;;;;;;;0.52;0.52;;;;;;;;;;4969303;29;20188;-72
2021/04/30 10:44:28;;;;;;;0.60;0.60;;;;;;;;;;4983659;28;20176;-72
2021/04/30 10:47:10;;;;;;;2.08;0.80;;;;;;;;;;4974801;28;20212;-71
2021/04/30 10:49:36;;;;;;;0.57;0.57;;;;;;;;;;4968364;29;20609;-71
2021/04/30 10:52:06;;;;;;;1.65;1.55;;;;;;;;;;4967728;29;20211;-70
2021/04/30 10:54:33;;;;;;;0.30;0.30;;;;;;;;;;4968193;29;20195;-71
2021/04/30 10:57:20;;;;;;;1.42;0.60;;;;;;;;;;4969811;29;20263;-70
2021/04/30 10:59:47;;;;;;;0.17;0.17;;;;;;;;;;4969712;28;20168;-69
2021/04/30 11:02:33;;;;;;;1.25;1.17;;;;;;;;;;4968815;28;20192;-73
2021/04/30 11:05:11;;;;;;;0.28;0.28;;;;;;;;;;4969562;29;20149;-71
2021/04/30 11:07:38;;;;;;;0.80;0.75;;;;;;;;;;4969187;29;20705;-72
2021/04/30 11:10:22;;;;;;;0.63;0.45;;;;;;;;;;4969515;29;20236;-70
2021/04/30 11:12:58;;;;;;;0.45;0.45;;;;;;;;;;4969601;29;20594;-71
2021/04/30 11:15:25;;;;;;;1.85;1.00;;;;;;;;;;4968166;29;20186;-72
2021/04/30 11:17:54;;;;;;;0.50;0.50;;;;;;;;;;4967646;29;20682;-70
2021/04/30 11:20:22;;;;;;;0.98;0.98;;;;;;;;;;4967818;29;20176;-70
2021/04/30 11:23:06;;;;;;;0.68;0.68;;;;;;;;;;4969197;28;20255;-70
2021/04/30 11:25:32;;;;;;;1.13;1.13;;;;;;;;;;4967928;29;20184;-70
2021/04/30 11:27:59;;;;;;;1.88;0.68;;;;;;;;;;4969353;28;20188;-70
2021/04/30 11:30:26;;;;;;;1.08;0.90;;;;;;;;;;4969271;28;20160;-70
2021/04/30 11:32:53;;;;;;;1.38;1.30;;;;;;;;;;4967865;29;20204;-70
2021/04/30 11:35:19;;;;;;;1.50;0.93;;;;;;;;;;4967047;29;20253;-70
2021/04/30 11:37:48;;;;;;;1.27;0.85;;;;;;;;;;4969303;28;20222;-70
2021/04/30 11:40:15;;;;;;;1.27;1.17;;;;;;;;;;4967805;29;20183;-70
2021/04/30 11:42:41;;;;;;;1.25;1.08;;;;;;;;;;4969198;28;20169;-71
2021/04/30 11:45:08;;;;;;;0.35;0.35;;;;;;;;;;4978266;28;20183;-72
2021/04/30 11:47:35;;;;;;;1.17;0.65;;;;;;;;;;4977099;28;20277;-73
2021/04/30 11:50:03;;;;;;;2.00;0.80;;;;;;;;;;4967882;29;20187;-71
2021/04/30 11:52:31;;;;;;;0.68;0.68;;;;;;;;;;4969249;28;20575;-71
2021/04/30 11:55:01;;;;;;;1.13;1.05;;;;;;;;;;4969104;28;20223;-71
2021/04/30 11:57:28;;;;;;;0.60;0.60;;;;;;;;;;4973013;29;20200;-70
2021/04/30 11:59:56;;;;;;;1.42;0.52;;;;;;;;;;4971755;29;20182;-71
2021/04/30 12:02:24;;;;;;;1.33;1.05;;;;;;;;;;4971557;28;20195;-70
2021/04/30 12:04:53;;;;;;;1.20;0.93;;;;;;;;;;4983053;28;20194;-71
2021/04/30 12:07:21;;;;;;;0.65;0.40;;;;;;;;;;4981829;28;20203;-72
2021/04/30 12:09:47;;;;;;;0.60;0.60;;;;;;;;;;4991916;28;20164;-73
2021/04/30 12:12:19;;;;;;;1.27;1.17;;;;;;;;;;4990631;28;20218;-70
2021/04/30 12:15:06;;;;;;;2.60;1.38;;;;;;;;;;4990466;28;20203;-70
2021/04/30 12:17:32;;;;;;;0.98;0.68;;;;;;;;;;4989854;28;20185;-71
2021/04/30 12:20:19;;;;;;;0.65;0.65;;;;;;;;;;4991941;28;20179;-70
2021/04/30 12:22:50;;;;;;;0.90;0.90;;;;;;;;;;4991320;28;20267;-71
2021/04/30 12:25:27;;;;;;;2.53;1.02;;;;;;;;;;4991880;28;20183;-72
2021/04/30 12:27:54;;;;;;;0.68;0.63;;;;;;;;;;4991520;28;20676;-72
2021/04/30 12:30:27;;;;;;;0.73;0.73;;;;;;;;;;4990667;28;20217;-72
2021/04/30 12:32:53;;;;;;;0.80;0.80;;;;;;;;;;4990362;28;20190;-72
2021/04/30 12:35:20;;;;;;;0.82;0.82;;;;;;;;;;4990269;28;20174;-72
2021/04/30 12:37:46;;;;;;;1.05;0.95;;;;;;;;;;4989934;28;20253;-71
2021/04/30 12:40:14;;;;;;;2.00;0.95;;;;;;;;;;4991282;28;20549;-71
2021/04/30 12:42:47;;;;;;;2.58;1.65;;;;;;;;;;4991474;28;20179;-71
2021/04/30 12:45:14;;;;;;;0.30;0.30;;;;;;;;;;4991379;28;20167;-71
2021/04/30 12:47:40;;;;;;;1.30;1.02;;;;;;;;;;4975687;28;20227;-70
2021/04/30 12:50:07;;;;;;;1.63;1.52;;;;;;;;;;4970665;29;20172;-70
2021/04/30 12:52:33;;;;;;;0.68;0.68;;;;;;;;;;4970711;29;20248;-70
2021/04/30 12:54:59;;;;;;;0.82;0.82;;;;;;;;;;4971874;28;20168;-71
2021/04/30 12:57:26;;;;;;;0.95;0.95;;;;;;;;;;4972055;29;20172;-71
2021/04/30 12:59:57;;;;;;;2.83;1.35;;;;;;;;;;4969966;29;20235;-71
2021/04/30 13:02:31;;;;;;;1.67;1.13;;;;;;;;;;4969660;29;20223;-70
2021/04/30 13:04:58;;;;;;;2.55;1.35;;;;;;;;;;4971844;28;20171;-70
2021/04/30 13:07:25;;;;;;;0.98;0.98;;;;;;;;;;4970729;28;20223;-70
2021/04/30 13:09:51;;;;;;;1.02;0.93;;;;;;;;;;4971711;28;20188;-71
2021/04/30 13:12:19;;;;;;;0.50;0.50;;;;;;;;;;4971756;28;20169;-71
2021/04/30 13:14:47;;;;;;;1.40;0.75;;;;;;;;;;4980029;28;20179;-72
2021/04/30 13:17:16;;;;;;;0.70;0.70;;;;;;;;;;4980379;28;20191;-70
2021/04/30 13:19:42;;;;;;;1.15;1.15;;;;;;;;;;4984461;28;20207;-70
2021/04/30 13:22:21;;;;;;;0.57;0.57;;;;;;;;;;4989130;28;20340;-71
2021/04/30 13:24:48;;;;;;;0.77;0.77;;;;;;;;;;4971505;28;20172;-72
2021/04/30 13:27:16;;;;;;;0.93;0.55;;;;;;;;;;4971444;28;20246;-73
2021/04/30 13:29:44;;;;;;;0.65;0.65;;;;;;;;;;4971056;28;20251;-72
2021/04/30 13:32:10;;;;;;;2.88;1.08;;;;;;;;;;4980145;28;20167;-72
2021/04/30 13:34:46;;;;;;;0.73;0.63;;;;;;;;;;4990548;28;20162;-72
2021/04/30 13:37:17;;;;;;;11.68;1.48;;;;;;;;;;4989122;28;20234;-72
2021/04/30 13:39:51;;;;;;;1.08;0.45;;;;;;;;;;4988962;28;20231;-73
2021/04/30 13:42:35;;;;;;;2.65;1.35;;;;;;;;;;4990423;28;20226;-72
2021/04/30 13:45:04;;;;;;;0.65;0.65;;;;;;;;;;4988991;28;20181;-72
2021/04/30 13:47:40;;;;;;;11.40;0.70;;;;;;;;;;4990259;28;20207;-72
2021/04/30 13:50:12;;;;;;;1.10;0.38;;;;;;;;;;4990135;28;20243;-72
2021/04/30 13:52:39;;;;;;;0.38;0.30;;;;;;;;;;4988923;28;20167;-72
2021/04/30 13:55:05;;;;;;;0.73;0.73;;;;;;;;;;4988893;28;20172;-72
2021/04/30 13:57:31;;;;;;;0.90;0.90;;;;;;;;;;4988795;28;20171;-71
2021/04/30 13:59:57;;;;;;;0.75;0.75;;;;;;;;;;4988882;28;20175;-71
2021/04/30 14:02:24;;;;;;;0.38;0.38;;;;;;;;;;4988578;28;20199;-71
2021/04/30 14:04:50;;;;;;;0.88;0.57;;;;;;;;;;4988822;28;20186;-76
2021/04/30 14:07:17;;;;;;;1.00;1.00;;;;;;;;;;4988670;28;20168;-71
2021/04/30 14:09:44;;;;;;;1.98;1.42;;;;;;;;;;4988521;28;20191;-71
2021/04/30 14:12:11;;;;;;;0.88;0.88;;;;;;;;;;4988663;28;20194;-71
2021/04/30 14:14:38;;;;;;;0.88;0.85;;;;;;;;;;4989581;28;20187;-71
2021/04/30 14:17:05;;;;;;;1.08;1.08;;;;;;;;;;4988397;28;20242;-72
2021/04/30 14:19:31;;;;;;;1.95;1.85;;;;;;;;;;4988677;28;20199;-71
2021/04/30 14:22:00;;;;;;;1.25;1.15;;;;;;;;;;4989377;28;20222;-71
2021/04/30 14:24:26;;;;;;;1.63;1.27;;;;;;;;;;4969193;28;20633;-71
2021/04/30 14:26:53;;;;;;;2.83;0.80;;;;;;;;;;4967244;29;20171;-71
2021/04/30 14:29:19;;;;;;;1.20;1.08;;;;;;;;;;4970267;28;20160;-71
2021/04/30 14:31:45;;;;;;;2.47;1.48;;;;;;;;;;4969077;29;20184;-71
2021/04/30 14:34:11;;;;;;;2.42;2.22;;;;;;;;;;4968998;29;20200;-72
2021/04/30 14:36:37;;;;;;;0.20;0.20;;;;;;;;;;4968941;29;20208;-70
2021/04/30 14:39:04;;;;;;;3.33;0.90;;;;;;;;;;4970137;29;20172;-73
2021/04/30 14:41:32;;;;;;;0.55;0.55;;;;;;;;;;4968696;29;20208;-70
2021/04/30 14:43:58;;;;;;;1.63;0.93;;;;;;;;;;4970393;28;20215;-71
2021/04/30 14:46:24;;;;;;;0.88;0.88;;;;;;;;;;4979898;28;20179;-71